sensor_id;sensor_type;location;lat;lon;timestamp;P1;durP1;ratioP1;P2;durP2;ratioP2
12433;SDS011;6281;49.038;8.372;2022-07-24T00:37:28;8.73;;;6.77;;
12433;SDS011;6281;49.038;8.372;2022-07-24T00:39:55;8.33;;;7.23;;
12433;SDS011;6281;49.038;8.372;2022-07-24T00:42:22;8.40;;;7.60;;
12433;SDS011;6281;49.038;8.372;2022-07-24T00:44:49;11.17;;;6.83;;
12433;SDS011;6281;49.038;8.372;2022-07-24T00:47:16;7.80;;;7.00;;
12433;SDS011;6281;49.038;8.372;2022-07-24T00:49:43;8.67;;;7.10;;
12433;SDS011;6281;49.038;8.372;2022-07-24T00:52:09;9.67;;;7.70;;
12433;SDS011;6281;49.038;8.372;2022-07-24T00:54:38;7.63;;;6.83;;
12433;SDS011;6281;49.038;8.372;2022-07-24T00:57:05;8.00;;;7.20;;
12433;SDS011;6281;49.038;8.372;2022-07-24T00:59:32;9.90;;;7.07;;
12433;SDS011;6281;49.038;8.372;2022-07-24T01:01:59;7.47;;;6.73;;
12433;SDS011;6281;49.038;8.372;2022-07-24T01:04:26;7.83;;;7.07;;
12433;SDS011;6281;49.038;8.372;2022-07-24T01:06:53;9.53;;;7.43;;
12433;SDS011;6281;49.038;8.372;2022-07-24T01:09:20;11.43;;;7.57;;
12433;SDS011;6281;49.038;8.372;2022-07-24T01:11:48;11.77;;;7.63;;
12433;SDS011;6281;49.038;8.372;2022-07-24T01:14:16;11.47;;;8.27;;
12433;SDS011;6281;49.038;8.372;2022-07-24T01:16:43;8.83;;;7.87;;
12433;SDS011;6281;49.038;8.372;2022-07-24T01:19:10;8.07;;;7.37;;
12433;SDS011;6281;49.038;8.372;2022-07-24T01:21:39;8.67;;;7.37;;
12433;SDS011;6281;49.038;8.372;2022-07-24T01:24:10;11.20;;;7.53;;
12433;SDS011;6281;49.038;8.372;2022-07-24T01:26:37;10.10;;;7.73;;
12433;SDS011;6281;49.038;8.372;2022-07-24T01:29:04;9.83;;;7.40;;
12433;SDS011;6281;49.038;8.372;2022-07-24T01:31:31;9.37;;;7.17;;
12433;SDS011;6281;49.038;8.372;2022-07-24T01:33:57;8.27;;;7.27;;
12433;SDS011;6281;49.038;8.372;2022-07-24T01:36:25;15.50;;;7.47;;
12433;SDS011;6281;49.038;8.372;2022-07-24T01:51:32;8.17;;;7.13;;
12433;SDS011;6281;49.038;8.372;2022-07-24T01:53:58;11.80;;;7.60;;
12433;SDS011;6281;49.038;8.372;2022-07-24T01:56:27;8.40;;;7.60;;
12433;SDS011;6281;49.038;8.372;2022-07-24T01:58:54;9.15;;;8.18;;
12433;SDS011;6281;49.038;8.372;2022-07-24T02:01:21;8.50;;;7.80;;
12433;SDS011;6281;49.038;8.372;2022-07-24T02:03:48;8.67;;;7.63;;
12433;SDS011;6281;49.038;8.372;2022-07-24T02:06:14;9.43;;;7.37;;
12433;SDS011;6281;49.038;8.372;2022-07-24T02:08:43;8.80;;;7.67;;
12433;SDS011;6281;49.038;8.372;2022-07-24T02:11:10;9.70;;;7.70;;
12433;SDS011;6281;49.038;8.372;2022-07-24T02:13:37;8.43;;;7.63;;
12433;SDS011;6281;49.038;8.372;2022-07-24T02:16:04;9.40;;;7.50;;
12433;SDS011;6281;49.038;8.372;2022-07-24T02:18:31;8.43;;;7.10;;
12433;SDS011;6281;49.038;8.372;2022-07-24T02:20:58;10.80;;;7.27;;
12433;SDS011;6281;49.038;8.372;2022-07-24T02:23:25;9.18;;;8.05;;
12433;SDS011;6281;49.038;8.372;2022-07-24T02:25:53;8.00;;;7.20;;
12433;SDS011;6281;49.038;8.372;2022-07-24T02:28:20;9.93;;;7.77;;
12433;SDS011;6281;49.038;8.372;2022-07-24T02:30:47;7.87;;;7.07;;
12433;SDS011;6281;49.038;8.372;2022-07-24T02:33:14;8.37;;;7.47;;
12433;SDS011;6281;49.038;8.372;2022-07-24T02:35:41;9.60;;;8.00;;
12433;SDS011;6281;49.038;8.372;2022-07-24T02:38:08;7.83;;;7.13;;
12433;SDS011;6281;49.038;8.372;2022-07-24T02:40:35;7.17;;;6.47;;
12433;SDS011;6281;49.038;8.372;2022-07-24T02:43:03;8.37;;;7.57;;
12433;SDS011;6281;49.038;8.372;2022-07-24T02:45:30;7.83;;;7.13;;
12433;SDS011;6281;49.038;8.372;2022-07-24T02:47:57;7.97;;;7.17;;
12433;SDS011;6281;49.038;8.372;2022-07-24T02:50:29;7.53;;;6.73;;
12433;SDS011;6281;49.038;8.372;2022-07-24T02:52:57;7.70;;;6.90;;
12433;SDS011;6281;49.038;8.372;2022-07-24T02:55:24;8.83;;;7.13;;
12433;SDS011;6281;49.038;8.372;2022-07-24T02:57:53;7.23;;;6.53;;
12433;SDS011;6281;49.038;8.372;2022-07-24T03:00:21;9.10;;;7.37;;
12433;SDS011;6281;49.038;8.372;2022-07-24T03:02:49;8.50;;;6.33;;
12433;SDS011;6281;49.038;8.372;2022-07-24T03:05:16;10.13;;;7.47;;
12433;SDS011;6281;49.038;8.372;2022-07-24T03:07:43;7.67;;;6.87;;
12433;SDS011;6281;49.038;8.372;2022-07-24T03:10:12;7.30;;;6.57;;
12433;SDS011;6281;49.038;8.372;2022-07-24T03:12:40;8.50;;;6.63;;
12433;SDS011;6281;49.038;8.372;2022-07-24T03:15:08;8.23;;;6.93;;
12433;SDS011;6281;49.038;8.372;2022-07-24T03:17:37;7.90;;;6.77;;
12433;SDS011;6281;49.038;8.372;2022-07-24T03:20:04;7.90;;;7.10;;
12433;SDS011;6281;49.038;8.372;2022-07-24T03:22:32;8.03;;;6.93;;
12433;SDS011;6281;49.038;8.372;2022-07-24T03:24:59;9.33;;;7.27;;
12433;SDS011;6281;49.038;8.372;2022-07-24T03:27:27;8.17;;;6.47;;
12433;SDS011;6281;49.038;8.372;2022-07-24T03:29:54;7.63;;;6.80;;
12433;SDS011;6281;49.038;8.372;2022-07-24T03:32:20;8.20;;;6.70;;
12433;SDS011;6281;49.038;8.372;2022-07-24T03:34:49;7.83;;;7.10;;
12433;SDS011;6281;49.038;8.372;2022-07-24T03:37:16;9.93;;;7.03;;
12433;SDS011;6281;49.038;8.372;2022-07-24T03:39:42;7.80;;;7.10;;
12433;SDS011;6281;49.038;8.372;2022-07-24T03:42:09;8.40;;;6.63;;
12433;SDS011;6281;49.038;8.372;2022-07-24T03:44:36;9.40;;;7.23;;
12433;SDS011;6281;49.038;8.372;2022-07-24T03:47:03;8.13;;;7.07;;
12433;SDS011;6281;49.038;8.372;2022-07-24T03:49:30;8.63;;;6.90;;
12433;SDS011;6281;49.038;8.372;2022-07-24T03:51:59;9.53;;;6.67;;
12433;SDS011;6281;49.038;8.372;2022-07-24T03:54:26;7.47;;;6.77;;
12433;SDS011;6281;49.038;8.372;2022-07-24T03:56:53;8.50;;;7.10;;
12433;SDS011;6281;49.038;8.372;2022-07-24T03:59:20;8.97;;;6.90;;
12433;SDS011;6281;49.038;8.372;2022-07-24T04:01:47;8.30;;;7.50;;
12433;SDS011;6281;49.038;8.372;2022-07-24T04:04:14;7.60;;;6.90;;
12433;SDS011;6281;49.038;8.372;2022-07-24T04:06:41;10.50;;;7.50;;
12433;SDS011;6281;49.038;8.372;2022-07-24T04:09:09;10.83;;;7.40;;
12433;SDS011;6281;49.038;8.372;2022-07-24T04:11:36;9.23;;;7.20;;
12433;SDS011;6281;49.038;8.372;2022-07-24T04:14:03;9.80;;;7.20;;
12433;SDS011;6281;49.038;8.372;2022-07-24T04:16:31;8.73;;;6.80;;
12433;SDS011;6281;49.038;8.372;2022-07-24T04:18:58;10.23;;;6.97;;
12433;SDS011;6281;49.038;8.372;2022-07-24T04:21:25;10.20;;;7.00;;
12433;SDS011;6281;49.038;8.372;2022-07-24T04:23:52;7.30;;;6.57;;
12433;SDS011;6281;49.038;8.372;2022-07-24T04:26:20;9.70;;;7.27;;
12433;SDS011;6281;49.038;8.372;2022-07-24T04:28:47;8.57;;;7.10;;
12433;SDS011;6281;49.038;8.372;2022-07-24T04:31:14;8.20;;;6.70;;
12433;SDS011;6281;49.038;8.372;2022-07-24T04:33:41;8.20;;;7.37;;
12433;SDS011;6281;49.038;8.372;2022-07-24T04:36:08;8.43;;;7.53;;
12433;SDS011;6281;49.038;8.372;2022-07-24T04:38:35;9.00;;;7.13;;
12433;SDS011;6281;49.038;8.372;2022-07-24T04:41:02;8.27;;;7.30;;
12433;SDS011;6281;49.038;8.372;2022-07-24T04:43:31;8.07;;;7.10;;
12433;SDS011;6281;49.038;8.372;2022-07-24T04:45:58;9.87;;;8.03;;
12433;SDS011;6281;49.038;8.372;2022-07-24T04:48:25;10.67;;;7.30;;
12433;SDS011;6281;49.038;8.372;2022-07-24T04:50:52;9.37;;;7.60;;
12433;SDS011;6281;49.038;8.372;2022-07-24T04:53:19;8.67;;;6.67;;
12433;SDS011;6281;49.038;8.372;2022-07-24T04:55:46;8.70;;;6.57;;
12433;SDS011;6281;49.038;8.372;2022-07-24T04:58:13;8.07;;;6.83;;
12433;SDS011;6281;49.038;8.372;2022-07-24T05:00:41;8.10;;;7.30;;
12433;SDS011;6281;49.038;8.372;2022-07-24T05:03:08;6.97;;;6.27;;
12433;SDS011;6281;49.038;8.372;2022-07-24T05:05:35;8.80;;;6.20;;
12433;SDS011;6281;49.038;8.372;2022-07-24T05:08:02;7.20;;;5.83;;
12433;SDS011;6281;49.038;8.372;2022-07-24T05:10:29;8.13;;;5.63;;
12433;SDS011;6281;49.038;8.372;2022-07-24T05:12:56;6.33;;;5.70;;
12433;SDS011;6281;49.038;8.372;2022-07-24T05:15:23;7.30;;;5.60;;
12433;SDS011;6281;49.038;8.372;2022-07-24T05:17:51;6.23;;;5.63;;
12433;SDS011;6281;49.038;8.372;2022-07-24T05:20:18;6.23;;;5.60;;
12433;SDS011;6281;49.038;8.372;2022-07-24T05:22:46;6.83;;;5.03;;
12433;SDS011;6281;49.038;8.372;2022-07-24T05:25:13;7.83;;;5.53;;
12433;SDS011;6281;49.038;8.372;2022-07-24T05:27:40;7.33;;;5.40;;
12433;SDS011;6281;49.038;8.372;2022-07-24T05:30:07;9.53;;;5.57;;
12433;SDS011;6281;49.038;8.372;2022-07-24T05:32:34;9.23;;;6.40;;
12433;SDS011;6281;49.038;8.372;2022-07-24T05:35:03;8.47;;;5.73;;
12433;SDS011;6281;49.038;8.372;2022-07-24T05:37:31;6.77;;;5.50;;
12433;SDS011;6281;49.038;8.372;2022-07-24T05:40:04;7.67;;;5.50;;
12433;SDS011;6281;49.038;8.372;2022-07-24T05:42:32;6.87;;;5.93;;
12433;SDS011;6281;49.038;8.372;2022-07-24T05:44:59;8.00;;;5.80;;
12433;SDS011;6281;49.038;8.372;2022-07-24T05:47:26;7.10;;;6.20;;
12433;SDS011;6281;49.038;8.372;2022-07-24T05:49:53;7.47;;;6.13;;
12433;SDS011;6281;49.038;8.372;2022-07-24T05:52:21;6.37;;;5.70;;
12433;SDS011;6281;49.038;8.372;2022-07-24T05:54:48;8.07;;;6.73;;
12433;SDS011;6281;49.038;8.372;2022-07-24T05:57:15;9.77;;;6.43;;
12433;SDS011;6281;49.038;8.372;2022-07-24T05:59:42;7.67;;;6.10;;
12433;SDS011;6281;49.038;8.372;2022-07-24T06:02:09;8.80;;;5.67;;
12433;SDS011;6281;49.038;8.372;2022-07-24T06:04:36;6.80;;;6.03;;
12433;SDS011;6281;49.038;8.372;2022-07-24T06:07:07;7.43;;;6.20;;
12433;SDS011;6281;49.038;8.372;2022-07-24T06:09:35;7.27;;;6.20;;
12433;SDS011;6281;49.038;8.372;2022-07-24T06:12:03;9.97;;;6.70;;
12433;SDS011;6281;49.038;8.372;2022-07-24T06:14:30;6.87;;;6.00;;
12433;SDS011;6281;49.038;8.372;2022-07-24T06:16:58;8.07;;;6.20;;
12433;SDS011;6281;49.038;8.372;2022-07-24T06:19:25;10.23;;;6.27;;
12433;SDS011;6281;49.038;8.372;2022-07-24T06:21:52;8.97;;;6.10;;
12433;SDS011;6281;49.038;8.372;2022-07-24T06:24:19;9.07;;;5.97;;
12433;SDS011;6281;49.038;8.372;2022-07-24T06:26:48;9.53;;;6.60;;
12433;SDS011;6281;49.038;8.372;2022-07-24T06:29:15;7.57;;;5.90;;
12433;SDS011;6281;49.038;8.372;2022-07-24T06:31:42;7.97;;;6.50;;
12433;SDS011;6281;49.038;8.372;2022-07-24T06:34:09;8.13;;;6.10;;
12433;SDS011;6281;49.038;8.372;2022-07-24T06:36:36;8.50;;;6.57;;
12433;SDS011;6281;49.038;8.372;2022-07-24T06:39:03;8.07;;;6.50;;
12433;SDS011;6281;49.038;8.372;2022-07-24T06:41:30;7.27;;;6.17;;
12433;SDS011;6281;49.038;8.372;2022-07-24T06:43:58;7.30;;;6.10;;
12433;SDS011;6281;49.038;8.372;2022-07-24T06:46:25;10.77;;;6.17;;
12433;SDS011;6281;49.038;8.372;2022-07-24T06:48:52;6.97;;;6.27;;
12433;SDS011;6281;49.038;8.372;2022-07-24T06:51:19;9.37;;;6.93;;
12433;SDS011;6281;49.038;8.372;2022-07-24T06:53:46;7.80;;;7.07;;
12433;SDS011;6281;49.038;8.372;2022-07-24T06:56:13;6.93;;;6.20;;
12433;SDS011;6281;49.038;8.372;2022-07-24T06:58:40;7.23;;;6.53;;
12433;SDS011;6281;49.038;8.372;2022-07-24T07:01:08;10.30;;;6.77;;
12433;SDS011;6281;49.038;8.372;2022-07-24T07:03:35;7.03;;;6.33;;
12433;SDS011;6281;49.038;8.372;2022-07-24T07:06:02;14.77;;;6.73;;
12433;SDS011;6281;49.038;8.372;2022-07-24T07:08:30;7.13;;;6.43;;
12433;SDS011;6281;49.038;8.372;2022-07-24T07:10:57;7.33;;;6.40;;
12433;SDS011;6281;49.038;8.372;2022-07-24T07:13:24;6.10;;;5.60;;
12433;SDS011;6281;49.038;8.372;2022-07-24T07:15:51;9.87;;;7.03;;
12433;SDS011;6281;49.038;8.372;2022-07-24T07:18:19;7.77;;;6.33;;
12433;SDS011;6281;49.038;8.372;2022-07-24T07:20:46;6.43;;;5.50;;
12433;SDS011;6281;49.038;8.372;2022-07-24T07:23:18;6.43;;;5.80;;
12433;SDS011;6281;49.038;8.372;2022-07-24T07:25:46;6.13;;;5.47;;
12433;SDS011;6281;49.038;8.372;2022-07-24T07:28:13;6.83;;;6.03;;
12433;SDS011;6281;49.038;8.372;2022-07-24T07:30:40;8.53;;;5.90;;
12433;SDS011;6281;49.038;8.372;2022-07-24T07:33:07;7.03;;;5.93;;
12433;SDS011;6281;49.038;8.372;2022-07-24T07:35:35;6.50;;;5.90;;
12433;SDS011;6281;49.038;8.372;2022-07-24T07:38:02;6.37;;;5.73;;
12433;SDS011;6281;49.038;8.372;2022-07-24T07:40:29;6.27;;;5.67;;
12433;SDS011;6281;49.038;8.372;2022-07-24T07:42:56;9.90;;;6.10;;
12433;SDS011;6281;49.038;8.372;2022-07-24T07:45:23;5.90;;;5.30;;
12433;SDS011;6281;49.038;8.372;2022-07-24T07:47:50;7.40;;;5.93;;
12433;SDS011;6281;49.038;8.372;2022-07-24T07:50:17;6.27;;;5.67;;
12433;SDS011;6281;49.038;8.372;2022-07-24T07:52:45;6.30;;;5.60;;
12433;SDS011;6281;49.038;8.372;2022-07-24T07:55:12;6.50;;;5.83;;
12433;SDS011;6281;49.038;8.372;2022-07-24T07:57:39;7.47;;;6.27;;
12433;SDS011;6281;49.038;8.372;2022-07-24T08:00:08;6.60;;;5.73;;
12433;SDS011;6281;49.038;8.372;2022-07-24T08:02:36;6.93;;;5.47;;
12433;SDS011;6281;49.038;8.372;2022-07-24T08:05:03;8.23;;;5.87;;
12433;SDS011;6281;49.038;8.372;2022-07-24T08:07:30;6.43;;;5.83;;
12433;SDS011;6281;49.038;8.372;2022-07-24T08:09:59;6.10;;;5.37;;
12433;SDS011;6281;49.038;8.372;2022-07-24T08:12:26;7.30;;;6.03;;
12433;SDS011;6281;49.038;8.372;2022-07-24T08:14:53;6.37;;;5.50;;
12433;SDS011;6281;49.038;8.372;2022-07-24T08:17:20;7.17;;;5.73;;
12433;SDS011;6281;49.038;8.372;2022-07-24T08:19:46;5.93;;;5.33;;
12433;SDS011;6281;49.038;8.372;2022-07-24T08:22:13;8.10;;;5.73;;
12433;SDS011;6281;49.038;8.372;2022-07-24T08:24:40;6.27;;;5.67;;
12433;SDS011;6281;49.038;8.372;2022-07-24T08:27:08;7.87;;;5.93;;
12433;SDS011;6281;49.038;8.372;2022-07-24T08:29:35;6.57;;;5.53;;
12433;SDS011;6281;49.038;8.372;2022-07-24T08:32:02;8.00;;;5.50;;
12433;SDS011;6281;49.038;8.372;2022-07-24T08:34:29;6.53;;;5.73;;
12433;SDS011;6281;49.038;8.372;2022-07-24T08:36:55;6.83;;;5.70;;
12433;SDS011;6281;49.038;8.372;2022-07-24T08:39:22;6.30;;;5.70;;
12433;SDS011;6281;49.038;8.372;2022-07-24T08:41:49;6.80;;;5.13;;
12433;SDS011;6281;49.038;8.372;2022-07-24T08:44:17;6.77;;;5.93;;
12433;SDS011;6281;49.038;8.372;2022-07-24T08:46:44;6.50;;;5.30;;
12433;SDS011;6281;49.038;8.372;2022-07-24T08:49:11;6.50;;;5.90;;
12433;SDS011;6281;49.038;8.372;2022-07-24T08:51:40;10.43;;;5.57;;
12433;SDS011;6281;49.038;8.372;2022-07-24T08:54:09;6.43;;;5.83;;
12433;SDS011;6281;49.038;8.372;2022-07-24T08:56:39;8.40;;;6.57;;
12433;SDS011;6281;49.038;8.372;2022-07-24T08:59:14;7.63;;;6.47;;
12433;SDS011;6281;49.038;8.372;2022-07-24T09:01:44;8.23;;;6.23;;
12433;SDS011;6281;49.038;8.372;2022-07-24T09:07:00;7.90;;;6.93;;
12433;SDS011;6281;49.038;8.372;2022-07-24T09:09:28;7.10;;;6.43;;
12433;SDS011;6281;49.038;8.372;2022-07-24T09:12:02;6.70;;;6.00;;
12433;SDS011;6281;49.038;8.372;2022-07-24T09:14:34;7.13;;;6.47;;
12433;SDS011;6281;49.038;8.372;2022-07-24T09:17:04;6.80;;;6.10;;
12433;SDS011;6281;49.038;8.372;2022-07-24T09:19:37;6.55;;;5.70;;
12433;SDS011;6281;49.038;8.372;2022-07-24T09:22:16;7.40;;;6.72;;
12433;SDS011;6281;49.038;8.372;2022-07-24T09:25:05;7.78;;;6.70;;
12433;SDS011;6281;49.038;8.372;2022-07-24T09:27:35;7.13;;;6.43;;
12433;SDS011;6281;49.038;8.372;2022-07-24T09:30:04;7.50;;;6.25;;
12433;SDS011;6281;49.038;8.372;2022-07-24T09:32:34;7.43;;;6.72;;
12433;SDS011;6281;49.038;8.372;2022-07-24T09:35:02;8.07;;;6.35;;
12433;SDS011;6281;49.038;8.372;2022-07-24T09:37:30;7.30;;;6.53;;
12433;SDS011;6281;49.038;8.372;2022-07-24T09:40:08;7.07;;;6.32;;
12433;SDS011;6281;49.038;8.372;2022-07-24T09:42:36;8.30;;;6.55;;
12433;SDS011;6281;49.038;8.372;2022-07-24T09:45:07;10.25;;;7.05;;
12433;SDS011;6281;49.038;8.372;2022-07-24T09:47:39;6.97;;;6.20;;
12433;SDS011;6281;49.038;8.372;2022-07-24T09:50:13;7.75;;;6.70;;
12433;SDS011;6281;49.038;8.372;2022-07-24T09:52:42;7.35;;;6.65;;
12433;SDS011;6281;49.038;8.372;2022-07-24T09:55:19;8.43;;;6.57;;
12433;SDS011;6281;49.038;8.372;2022-07-24T09:57:48;7.10;;;6.40;;
12433;SDS011;6281;49.038;8.372;2022-07-24T10:00:16;8.00;;;6.30;;
12433;SDS011;6281;49.038;8.372;2022-07-24T10:02:44;8.85;;;7.05;;
12433;SDS011;6281;49.038;8.372;2022-07-24T10:05:12;7.30;;;6.60;;
12433;SDS011;6281;49.038;8.372;2022-07-24T10:07:40;9.18;;;6.55;;
12433;SDS011;6281;49.038;8.372;2022-07-24T10:10:09;7.20;;;6.60;;
12433;SDS011;6281;49.038;8.372;2022-07-24T10:12:36;8.02;;;5.88;;
12433;SDS011;6281;49.038;8.372;2022-07-24T10:15:04;6.78;;;6.10;;
12433;SDS011;6281;49.038;8.372;2022-07-24T10:17:44;10.02;;;6.35;;
12433;SDS011;6281;49.038;8.372;2022-07-24T10:20:39;7.07;;;6.35;;
12433;SDS011;6281;49.038;8.372;2022-07-24T10:23:07;7.05;;;6.45;;
12433;SDS011;6281;49.038;8.372;2022-07-24T10:25:40;6.90;;;6.22;;
12433;SDS011;6281;49.038;8.372;2022-07-24T10:28:22;7.50;;;6.70;;
12433;SDS011;6281;49.038;8.372;2022-07-24T10:31:02;7.60;;;6.82;;
12433;SDS011;6281;49.038;8.372;2022-07-24T10:33:31;7.15;;;6.43;;
12433;SDS011;6281;49.038;8.372;2022-07-24T10:36:00;6.60;;;6.00;;
12433;SDS011;6281;49.038;8.372;2022-07-24T10:38:32;8.52;;;6.25;;
12433;SDS011;6281;49.038;8.372;2022-07-24T10:41:05;7.00;;;6.18;;
12433;SDS011;6281;49.038;8.372;2022-07-24T10:43:39;7.32;;;6.13;;
12433;SDS011;6281;49.038;8.372;2022-07-24T10:46:10;6.40;;;5.85;;
12433;SDS011;6281;49.038;8.372;2022-07-24T10:48:38;6.13;;;5.53;;
12433;SDS011;6281;49.038;8.372;2022-07-24T10:51:09;6.70;;;6.00;;
12433;SDS011;6281;49.038;8.372;2022-07-24T10:53:45;6.45;;;5.82;;
12433;SDS011;6281;49.038;8.372;2022-07-24T10:56:16;6.20;;;5.38;;
12433;SDS011;6281;49.038;8.372;2022-07-24T10:58:51;6.57;;;5.68;;
12433;SDS011;6281;49.038;8.372;2022-07-24T11:01:29;6.97;;;5.82;;
12433;SDS011;6281;49.038;8.372;2022-07-24T11:04:01;5.82;;;5.22;;
12433;SDS011;6281;49.038;8.372;2022-07-24T11:06:50;7.28;;;6.50;;
12433;SDS011;6281;49.038;8.372;2022-07-24T11:09:20;6.20;;;5.70;;
12433;SDS011;6281;49.038;8.372;2022-07-24T11:12:04;6.85;;;5.28;;
12433;SDS011;6281;49.038;8.372;2022-07-24T11:14:48;6.85;;;5.18;;
12433;SDS011;6281;49.038;8.372;2022-07-24T11:20:03;5.88;;;5.38;;
12433;SDS011;6281;49.038;8.372;2022-07-24T11:22:38;6.15;;;5.05;;
12433;SDS011;6281;49.038;8.372;2022-07-24T11:25:16;6.13;;;5.30;;
12433;SDS011;6281;49.038;8.372;2022-07-24T11:27:48;5.30;;;4.90;;
12433;SDS011;6281;49.038;8.372;2022-07-24T11:30:18;5.97;;;5.40;;
12433;SDS011;6281;49.038;8.372;2022-07-24T11:32:46;5.53;;;5.03;;
12433;SDS011;6281;49.038;8.372;2022-07-24T11:35:13;5.28;;;4.88;;
12433;SDS011;6281;49.038;8.372;2022-07-24T11:37:41;5.78;;;4.93;;
12433;SDS011;6281;49.038;8.372;2022-07-24T11:40:12;5.60;;;5.10;;
12433;SDS011;6281;49.038;8.372;2022-07-24T11:42:41;5.93;;;5.40;;
12433;SDS011;6281;49.038;8.372;2022-07-24T11:45:08;5.25;;;4.85;;
12433;SDS011;6281;49.038;8.372;2022-07-24T11:47:35;5.70;;;5.20;;
12433;SDS011;6281;49.038;8.372;2022-07-24T11:50:03;6.35;;;5.75;;
12433;SDS011;6281;49.038;8.372;2022-07-24T11:52:32;5.97;;;5.45;;
12433;SDS011;6281;49.038;8.372;2022-07-24T11:55:02;6.22;;;5.72;;
12433;SDS011;6281;49.038;8.372;2022-07-24T11:57:32;6.10;;;5.60;;
12433;SDS011;6281;49.038;8.372;2022-07-24T11:59:59;6.75;;;5.18;;
12433;SDS011;6281;49.038;8.372;2022-07-24T12:02:26;5.63;;;5.13;;
12433;SDS011;6281;49.038;8.372;2022-07-24T12:04:53;6.38;;;5.85;;
12433;SDS011;6281;49.038;8.372;2022-07-24T12:07:21;5.88;;;5.43;;
12433;SDS011;6281;49.038;8.372;2022-07-24T12:09:49;6.03;;;5.50;;
12433;SDS011;6281;49.038;8.372;2022-07-24T12:12:23;5.72;;;5.22;;
12433;SDS011;6281;49.038;8.372;2022-07-24T12:14:52;6.47;;;5.30;;
12433;SDS011;6281;49.038;8.372;2022-07-24T12:17:25;5.90;;;5.40;;
12433;SDS011;6281;49.038;8.372;2022-07-24T12:19:53;9.45;;;5.20;;
12433;SDS011;6281;49.038;8.372;2022-07-24T12:22:22;4.80;;;4.40;;
12433;SDS011;6281;49.038;8.372;2022-07-24T12:24:50;6.80;;;4.70;;
12433;SDS011;6281;49.038;8.372;2022-07-24T12:27:35;5.53;;;4.63;;
12433;SDS011;6281;49.038;8.372;2022-07-24T12:30:17;4.63;;;4.22;;
12433;SDS011;6281;49.038;8.372;2022-07-24T12:32:52;4.80;;;4.40;;
12433;SDS011;6281;49.038;8.372;2022-07-24T12:35:23;5.70;;;5.20;;
12433;SDS011;6281;49.038;8.372;2022-07-24T12:37:52;6.05;;;5.38;;
12433;SDS011;6281;49.038;8.372;2022-07-24T12:40:23;4.97;;;4.47;;
12433;SDS011;6281;49.038;8.372;2022-07-24T12:42:57;5.10;;;4.70;;
12433;SDS011;6281;49.038;8.372;2022-07-24T12:45:29;5.75;;;4.47;;
12433;SDS011;6281;49.038;8.372;2022-07-24T12:48:06;6.63;;;5.00;;
12433;SDS011;6281;49.038;8.372;2022-07-24T12:50:52;5.28;;;4.88;;
12433;SDS011;6281;49.038;8.372;2022-07-24T12:53:25;6.28;;;5.22;;
12433;SDS011;6281;49.038;8.372;2022-07-24T12:56:00;6.35;;;4.88;;
12433;SDS011;6281;49.038;8.372;2022-07-24T12:58:29;5.05;;;4.63;;
12433;SDS011;6281;49.038;8.372;2022-07-24T13:01:11;5.38;;;4.88;;
12433;SDS011;6281;49.038;8.372;2022-07-24T13:03:38;5.22;;;4.72;;
12433;SDS011;6281;49.038;8.372;2022-07-24T13:06:05;5.20;;;4.70;;
12433;SDS011;6281;49.038;8.372;2022-07-24T13:08:32;5.28;;;4.78;;
12433;SDS011;6281;49.038;8.372;2022-07-24T13:10:58;5.32;;;4.82;;
12433;SDS011;6281;49.038;8.372;2022-07-24T13:13:25;5.10;;;4.60;;
12433;SDS011;6281;49.038;8.372;2022-07-24T13:15:53;5.25;;;4.85;;
12433;SDS011;6281;49.038;8.372;2022-07-24T13:18:20;6.00;;;5.22;;
12433;SDS011;6281;49.038;8.372;2022-07-24T13:20:47;5.03;;;4.53;;
12433;SDS011;6281;49.038;8.372;2022-07-24T13:23:14;5.03;;;4.53;;
12433;SDS011;6281;49.038;8.372;2022-07-24T13:25:41;5.40;;;4.90;;
12433;SDS011;6281;49.038;8.372;2022-07-24T13:28:10;5.38;;;4.55;;
12433;SDS011;6281;49.038;8.372;2022-07-24T13:30:37;5.25;;;4.75;;
12433;SDS011;6281;49.038;8.372;2022-07-24T13:33:05;5.53;;;4.75;;
12433;SDS011;6281;49.038;8.372;2022-07-24T13:35:31;5.05;;;4.63;;
12433;SDS011;6281;49.038;8.372;2022-07-24T13:37:58;5.10;;;4.70;;
12433;SDS011;6281;49.038;8.372;2022-07-24T13:40:25;5.63;;;5.22;;
12433;SDS011;6281;49.038;8.372;2022-07-24T13:42:52;5.25;;;4.75;;
12433;SDS011;6281;49.038;8.372;2022-07-24T13:45:19;5.18;;;4.78;;
12433;SDS011;6281;49.038;8.372;2022-07-24T13:47:45;5.72;;;4.90;;
12433;SDS011;6281;49.038;8.372;2022-07-24T13:50:14;4.95;;;4.55;;
12433;SDS011;6281;49.038;8.372;2022-07-24T13:52:41;5.32;;;4.93;;
12433;SDS011;6281;49.038;8.372;2022-07-24T13:55:07;5.63;;;5.00;;
12433;SDS011;6281;49.038;8.372;2022-07-24T13:57:34;5.90;;;5.07;;
12433;SDS011;6281;49.038;8.372;2022-07-24T14:00:02;7.03;;;5.00;;
12433;SDS011;6281;49.038;8.372;2022-07-24T14:02:29;5.50;;;5.10;;
12433;SDS011;6281;49.038;8.372;2022-07-24T14:04:56;5.47;;;5.05;;
12433;SDS011;6281;49.038;8.372;2022-07-24T14:07:24;5.07;;;4.57;;
12433;SDS011;6281;49.038;8.372;2022-07-24T14:09:51;8.07;;;5.25;;
12433;SDS011;6281;49.038;8.372;2022-07-24T14:12:20;5.50;;;5.03;;
12433;SDS011;6281;49.038;8.372;2022-07-24T14:14:47;5.28;;;4.78;;
12433;SDS011;6281;49.038;8.372;2022-07-24T14:17:13;5.38;;;4.85;;
12433;SDS011;6281;49.038;8.372;2022-07-24T14:19:40;5.50;;;5.10;;
12433;SDS011;6281;49.038;8.372;2022-07-24T14:22:07;5.35;;;4.85;;
12433;SDS011;6281;49.038;8.372;2022-07-24T14:24:35;5.88;;;5.35;;
12433;SDS011;6281;49.038;8.372;2022-07-24T14:27:02;5.70;;;5.20;;
12433;SDS011;6281;49.038;8.372;2022-07-24T14:29:29;5.18;;;4.68;;
12433;SDS011;6281;49.038;8.372;2022-07-24T14:31:56;6.90;;;5.32;;
12433;SDS011;6281;49.038;8.372;2022-07-24T14:34:23;5.85;;;5.30;;
12433;SDS011;6281;49.038;8.372;2022-07-24T14:36:49;5.50;;;5.00;;
12433;SDS011;6281;49.038;8.372;2022-07-24T14:39:16;5.40;;;4.90;;
12433;SDS011;6281;49.038;8.372;2022-07-24T14:41:45;5.53;;;5.05;;
12433;SDS011;6281;49.038;8.372;2022-07-24T14:44:12;6.40;;;5.40;;
12433;SDS011;6281;49.038;8.372;2022-07-24T14:46:39;5.75;;;5.25;;
12433;SDS011;6281;49.038;8.372;2022-07-24T14:49:06;5.07;;;4.68;;
12433;SDS011;6281;49.038;8.372;2022-07-24T14:51:33;5.38;;;4.90;;
12433;SDS011;6281;49.038;8.372;2022-07-24T14:54:00;6.15;;;5.60;;
12433;SDS011;6281;49.038;8.372;2022-07-24T14:56:27;5.60;;;5.20;;
12433;SDS011;6281;49.038;8.372;2022-07-24T14:58:55;6.30;;;4.40;;
12433;SDS011;6281;49.038;8.372;2022-07-24T15:01:22;5.38;;;4.88;;
12433;SDS011;6281;49.038;8.372;2022-07-24T15:03:49;5.68;;;5.15;;
12433;SDS011;6281;49.038;8.372;2022-07-24T15:06:16;5.03;;;4.63;;
12433;SDS011;6281;49.038;8.372;2022-07-24T15:08:43;5.20;;;4.80;;
12433;SDS011;6281;49.038;8.372;2022-07-24T15:11:10;6.88;;;4.95;;
12433;SDS011;6281;49.038;8.372;2022-07-24T15:13:37;5.28;;;4.80;;
12433;SDS011;6281;49.038;8.372;2022-07-24T15:16:07;5.70;;;4.90;;
12433;SDS011;6281;49.038;8.372;2022-07-24T15:18:34;5.88;;;5.38;;
12433;SDS011;6281;49.038;8.372;2022-07-24T15:21:02;5.90;;;5.40;;
12433;SDS011;6281;49.038;8.372;2022-07-24T15:23:29;5.18;;;4.68;;
12433;SDS011;6281;49.038;8.372;2022-07-24T15:25:56;5.88;;;5.28;;
12433;SDS011;6281;49.038;8.372;2022-07-24T15:28:22;5.47;;;4.97;;
12433;SDS011;6281;49.038;8.372;2022-07-24T15:30:51;5.78;;;5.18;;
12433;SDS011;6281;49.038;8.372;2022-07-24T15:33:19;5.68;;;5.18;;
12433;SDS011;6281;49.038;8.372;2022-07-24T15:35:46;6.07;;;5.05;;
12433;SDS011;6281;49.038;8.372;2022-07-24T15:38:13;5.45;;;5.05;;
12433;SDS011;6281;49.038;8.372;2022-07-24T15:40:42;6.13;;;5.53;;
12433;SDS011;6281;49.038;8.372;2022-07-24T15:43:09;5.47;;;5.07;;
12433;SDS011;6281;49.038;8.372;2022-07-24T15:45:36;5.32;;;4.82;;
12433;SDS011;6281;49.038;8.372;2022-07-24T15:48:03;6.82;;;5.80;;
12433;SDS011;6281;49.038;8.372;2022-07-24T15:50:31;7.13;;;5.65;;
12433;SDS011;6281;49.038;8.372;2022-07-24T15:52:58;5.93;;;5.32;;
12433;SDS011;6281;49.038;8.372;2022-07-24T15:55:25;5.20;;;4.70;;
12433;SDS011;6281;49.038;8.372;2022-07-24T15:57:52;6.38;;;5.70;;
12433;SDS011;6281;49.038;8.372;2022-07-24T16:00:19;5.53;;;5.10;;
12433;SDS011;6281;49.038;8.372;2022-07-24T16:02:46;5.95;;;5.38;;